Time;durP1;ratioP1;P1;durP2;ratioP2;P2;SDS_P1;SDS_P2;PMS_P1;PMS_P2;Temp;Humidity;BMP_temperature;BMP_pressure;BME280_temperature;BME280_humidity;BME280_pressure;Samples;Min_cycle;Max_cycle;Signal;HPM_P1;HPM_P2
2023/07/12 00:00:51;;;;;;;8.35;2.30;;;15.80;99.90;;;;;;4971806;28;20171;-74
2023/07/12 00:03:17;;;;;;;10.18;2.22;;;15.80;99.90;;;;;;4973083;28;20737;-74
2023/07/12 00:05:44;;;;;;;13.35;2.35;;;15.80;99.90;;;;;;4972968;28;20754;-74
2023/07/12 00:08:25;;;;;;;9.98;2.35;;;15.70;99.90;;;;;;4972784;28;20184;-75
2023/07/12 00:10:53;;;;;;;16.25;2.20;;;15.80;99.90;;;;;;4972173;28;20225;-75
2023/07/12 00:13:18;;;;;;;15.85;2.60;;;15.80;99.90;;;;;;4972874;28;20180;-74
2023/07/12 00:15:46;;;;;;;16.85;2.20;;;15.80;99.90;;;;;;4973308;28;20242;-73
2023/07/12 00:18:17;;;;;;;15.27;2.55;;;15.80;99.90;;;;;;4973626;28;20176;-76
2023/07/12 00:20:44;;;;;;;7.30;1.88;;;15.80;99.90;;;;;;4973261;28;20175;-76
2023/07/12 00:23:12;;;;;;;11.82;2.13;;;15.80;99.90;;;;;;4973246;28;20175;-77
2023/07/12 00:25:38;;;;;;;12.25;2.13;;;15.80;99.90;;;;;;4973150;28;20639;-76
2023/07/12 00:28:15;;;;;;;15.02;2.70;;;15.80;99.90;;;;;;4973242;28;20183;-77
2023/07/12 00:30:41;;;;;;;11.77;2.50;;;15.80;99.90;;;;;;4972644;28;20339;-76
2023/07/12 00:33:08;;;;;;;12.27;2.80;;;15.80;99.90;;;;;;4972971;28;20267;-76
2023/07/12 00:35:34;;;;;;;11.18;2.50;;;15.80;99.90;;;;;;4972888;28;20218;-76
2023/07/12 00:38:01;;;;;;;13.38;2.50;;;15.70;99.90;;;;;;4972963;28;20638;-75
2023/07/12 00:40:41;;;;;;;9.68;2.58;;;15.80;99.90;;;;;;4972873;28;20215;-76
2023/07/12 00:43:30;;;;;;;13.57;2.40;;;15.80;99.90;;;;;;4975041;28;20748;-76
2023/07/12 00:45:59;;;;;;;12.88;2.47;;;15.80;99.90;;;;;;4974303;28;20180;-77
2023/07/12 00:48:25;;;;;;;9.48;2.45;;;15.80;99.90;;;;;;4972455;28;20338;-76
2023/07/12 00:50:51;;;;;;;13.95;2.65;;;15.80;99.90;;;;;;4970692;28;20678;-77
2023/07/12 00:53:20;;;;;;;15.77;2.70;;;15.80;99.90;;;;;;4972340;28;20586;-76
2023/07/12 00:56:00;;;;;;;12.60;2.45;;;15.80;99.90;;;;;;4971865;28;20674;-77
2023/07/12 00:58:30;;;;;;;18.25;2.78;;;15.80;99.90;;;;;;4971802;28;20168;-77
2023/07/12 01:00:59;;;;;;;12.60;2.40;;;15.80;99.90;;;;;;4971858;28;20211;-78
2023/07/12 01:03:27;;;;;;;12.50;2.53;;;15.90;99.90;;;;;;4971702;28;20168;-78
2023/07/12 01:05:52;;;;;;;13.73;2.85;;;15.80;99.90;;;;;;4971858;28;20231;-77
2023/07/12 01:08:21;;;;;;;11.23;2.35;;;15.80;99.90;;;;;;4968456;28;20179;-76
2023/07/12 01:10:47;;;;;;;15.32;2.55;;;15.80;99.90;;;;;;4971669;28;20681;-68
2023/07/12 01:13:13;;;;;;;12.65;2.45;;;15.90;99.90;;;;;;4971651;28;20199;-74
2023/07/12 01:15:38;;;;;;;12.50;2.30;;;16.00;99.90;;;;;;4971081;28;20682;-71
2023/07/12 01:18:06;;;;;;;17.45;2.47;;;16.00;99.90;;;;;;4971303;28;20172;-73
2023/07/12 01:20:39;;;;;;;16.75;2.38;;;16.00;99.90;;;;;;4971501;28;20283;-74
2023/07/12 01:23:05;;;;;;;12.48;2.20;;;16.00;99.90;;;;;;4971565;28;20270;-74
2023/07/12 01:25:46;;;;;;;13.88;2.63;;;16.10;99.90;;;;;;4971372;28;20186;-74
2023/07/12 01:28:12;;;;;;;13.93;2.47;;;16.10;99.90;;;;;;4971381;28;20207;-75
2023/07/12 01:30:39;;;;;;;17.75;2.60;;;16.00;99.90;;;;;;4971578;28;20238;-75
2023/07/12 01:33:06;;;;;;;16.27;2.20;;;16.00;99.90;;;;;;4971550;28;20247;-76
2023/07/12 01:35:31;;;;;;;14.93;2.70;;;16.00;99.90;;;;;;4981584;28;20206;-75
2023/07/12 01:37:58;;;;;;;12.57;2.67;;;16.00;99.90;;;;;;4983558;28;20717;-77
2023/07/12 01:40:23;;;;;;;17.92;2.83;;;15.90;99.90;;;;;;4971451;28;20180;-76
2023/07/12 01:42:49;;;;;;;13.63;2.85;;;16.00;99.90;;;;;;4972568;28;20627;-76
2023/07/12 01:45:15;;;;;;;23.83;2.92;;;15.90;99.90;;;;;;4927661;28;1394633;-76
2023/07/12 01:47:40;;;;;;;20.25;2.92;;;16.00;99.90;;;;;;4975987;28;20179;-76
2023/07/12 01:50:06;;;;;;;21.40;2.72;;;16.00;99.90;;;;;;4976019;28;20635;-75
2023/07/12 01:52:32;;;;;;;15.40;2.63;;;16.00;99.90;;;;;;4976090;28;20523;-76
2023/07/12 01:54:57;;;;;;;23.05;3.65;;;16.10;99.90;;;;;;4975823;28;20681;-76
2023/07/12 01:57:23;;;;;;;15.90;2.38;;;15.90;99.90;;;;;;4975771;28;20251;-77
2023/07/12 01:59:49;;;;;;;14.80;2.50;;;15.90;99.90;;;;;;4975708;28;20168;-77
2023/07/12 02:02:14;;;;;;;12.63;2.65;;;15.90;99.90;;;;;;4975871;28;20570;-77
2023/07/12 02:04:40;;;;;;;12.57;2.38;;;15.90;99.90;;;;;;4975835;28;20192;-77
2023/07/12 02:07:05;;;;;;;13.30;2.80;;;15.90;99.90;;;;;;4975636;28;20200;-77
2023/07/12 02:09:38;;;;;;;17.33;3.20;;;15.90;99.90;;;;;;4975764;28;20180;-77
2023/07/12 02:12:04;;;;;;;23.67;2.92;;;15.90;99.90;;;;;;4975616;28;20176;-77
2023/07/12 02:14:30;;;;;;;17.38;2.75;;;15.90;99.90;;;;;;4975374;28;20266;-77
2023/07/12 02:16:55;;;;;;;13.23;2.50;;;15.80;99.90;;;;;;4975572;28;20180;-79
2023/07/12 02:19:21;;;;;;;15.40;3.03;;;15.90;99.90;;;;;;4975563;28;20202;-80
2023/07/12 02:21:46;;;;;;;9.63;2.90;;;15.80;99.90;;;;;;4975525;28;20512;-78
2023/07/12 02:24:12;;;;;;;16.98;2.67;;;15.80;99.90;;;;;;4975404;28;20184;-78
2023/07/12 02:26:39;;;;;;;11.27;2.55;;;15.80;99.90;;;;;;4974937;28;20184;-80
2023/07/12 02:29:05;;;;;;;13.07;2.90;;;15.80;99.90;;;;;;4975227;28;20218;-80
2023/07/12 02:31:31;;;;;;;12.60;2.17;;;15.70;99.90;;;;;;4975100;28;20216;-79
2023/07/12 02:33:57;;;;;;;16.67;2.53;;;15.70;99.90;;;;;;4974943;28;20195;-78
2023/07/12 02:36:23;;;;;;;15.05;2.70;;;;;;;;;;4974847;28;20215;-79
2023/07/12 02:38:49;;;;;;;17.52;3.10;;;15.60;99.90;;;;;;4975228;28;20176;-77
2023/07/12 02:41:16;;;;;;;11.35;2.42;;;15.60;99.90;;;;;;4975313;28;20258;-77
2023/07/12 02:43:42;;;;;;;16.75;2.92;;;15.60;99.90;;;;;;4973700;28;20199;-78
2023/07/12 02:46:07;;;;;;;12.10;2.38;;;15.60;99.90;;;;;;4975221;28;20623;-77
2023/07/12 02:48:33;;;;;;;18.60;2.65;;;15.60;99.90;;;;;;4974892;28;20635;-76
2023/07/12 02:50:59;;;;;;;14.10;3.33;;;15.60;99.90;;;;;;4973534;28;20199;-76
2023/07/12 02:53:25;;;;;;;18.65;2.97;;;15.60;99.90;;;;;;4974382;28;20620;-78
2023/07/12 02:55:51;;;;;;;20.90;3.17;;;15.60;99.90;;;;;;4974596;28;20223;-77
2023/07/12 02:58:18;;;;;;;16.33;2.70;;;15.60;99.90;;;;;;4974498;28;20543;-76
2023/07/12 03:00:43;;;;;;;15.57;2.60;;;15.50;99.90;;;;;;4974433;28;20220;-76
2023/07/12 03:03:09;;;;;;;11.23;2.65;;;15.50;99.90;;;;;;4974443;28;20265;-76
2023/07/12 03:05:36;;;;;;;17.63;3.35;;;15.50;99.90;;;;;;4974342;28;20176;-77
2023/07/12 03:08:02;;;;;;;15.18;2.97;;;15.50;99.90;;;;;;4968701;28;20203;-75
2023/07/12 03:10:28;;;;;;;11.77;2.67;;;15.60;99.90;;;;;;4974102;28;20662;-75
2023/07/12 03:12:54;;;;;;;17.95;2.83;;;15.60;99.90;;;;;;4974451;28;20167;-77
2023/07/12 03:15:20;;;;;;;18.38;3.10;;;15.70;99.90;;;;;;4974403;28;20215;-77
2023/07/12 03:17:46;;;;;;;15.45;2.90;;;15.60;99.90;;;;;;4974175;28;20200;-77
2023/07/12 03:20:12;;;;;;;12.55;2.60;;;15.70;99.90;;;;;;4974468;28;20187;-74
2023/07/12 03:22:38;;;;;;;14.55;2.65;;;15.70;99.90;;;;;;4974488;28;20179;-76
2023/07/12 03:25:04;;;;;;;8.20;2.55;;;15.70;99.90;;;;;;4974664;28;20593;-75
2023/07/12 03:27:29;;;;;;;14.85;2.85;;;15.70;99.90;;;;;;4974920;28;20179;-76
2023/07/12 03:29:55;;;;;;;19.02;2.72;;;15.80;99.90;;;;;;4974965;28;20180;-76
2023/07/12 03:32:21;;;;;;;15.80;3.28;;;15.80;99.90;;;;;;4974194;28;20271;-75
2023/07/12 03:34:46;;;;;;;15.77;2.83;;;15.70;99.90;;;;;;4973837;28;20211;-75
2023/07/12 03:37:12;;;;;;;10.50;3.35;;;15.80;99.90;;;;;;4974464;28;20183;-75
2023/07/12 03:39:38;;;;;;;13.32;2.78;;;15.80;99.90;;;;;;4970788;28;20283;-75
2023/07/12 03:42:04;;;;;;;16.00;2.42;;;15.70;99.90;;;;;;4973553;28;20635;-76
2023/07/12 03:44:30;;;;;;;9.77;2.88;;;15.80;99.90;;;;;;4973483;28;20226;-75
2023/07/12 03:46:56;;;;;;;15.15;2.75;;;15.80;99.90;;;;;;4973824;28;20642;-76
2023/07/12 03:49:21;;;;;;;13.27;3.53;;;15.70;99.90;;;;;;4973765;28;20168;-75
2023/07/12 03:51:47;;;;;;;12.55;3.42;;;15.70;99.90;;;;;;4974053;28;20179;-83
2023/07/12 03:54:13;;;;;;;6.32;2.58;;;15.70;99.90;;;;;;4974670;28;20176;-83
2023/07/12 03:56:39;;;;;;;7.82;2.33;;;15.80;99.90;;;;;;4974495;28;20259;-84
2023/07/12 03:59:06;;;;;;;17.45;2.67;;;15.70;99.90;;;;;;4974846;28;20196;-83
2023/07/12 04:01:31;;;;;;;7.85;2.65;;;15.70;99.90;;;;;;4973606;28;20187;-75
2023/07/12 04:03:57;;;;;;;11.63;2.22;;;15.60;99.90;;;;;;4972715;28;20195;-74
2023/07/12 04:06:23;;;;;;;14.27;2.78;;;15.60;99.90;;;;;;4972466;28;20176;-75
2023/07/12 04:08:48;;;;;;;7.82;2.95;;;15.60;99.90;;;;;;4973319;28;20538;-73
2023/07/12 04:11:33;;;;;;;10.55;3.00;;;15.50;99.90;;;;;;4973186;28;20183;-72
2023/07/12 04:13:59;;;;;;;11.65;2.97;;;15.50;99.90;;;;;;4973251;28;20237;-72
2023/07/12 04:16:25;;;;;;;11.60;3.13;;;15.40;99.90;;;;;;4973143;28;20602;-72
2023/07/12 04:18:52;;;;;;;13.82;3.13;;;15.40;99.90;;;;;;4973206;28;20176;-72
2023/07/12 04:21:17;;;;;;;14.82;3.45;;;15.40;99.90;;;;;;4973016;28;20208;-71
2023/07/12 04:23:45;;;;;;;13.73;3.50;;;15.30;99.90;;;;;;4973213;28;20207;-70
2023/07/12 04:26:11;;;;;;;13.25;3.55;;;15.30;99.90;;;;;;4973093;28;20168;-72
2023/07/12 04:28:39;;;;;;;17.70;3.50;;;15.20;99.90;;;;;;4973053;28;20234;-72
2023/07/12 04:31:12;;;;;;;11.30;3.25;;;15.20;99.90;;;;;;4972852;28;20180;-73
2023/07/12 04:33:38;;;;;;;12.55;3.00;;;15.20;99.90;;;;;;4972679;28;20184;-71
2023/07/12 04:36:09;;;;;;;17.65;3.65;;;15.20;99.90;;;;;;4972752;28;20214;-75
2023/07/12 04:38:35;;;;;;;16.77;3.60;;;15.30;99.90;;;;;;4972875;28;20611;-76
2023/07/12 04:41:01;;;;;;;12.15;3.25;;;15.20;99.90;;;;;;4967752;28;20181;-77
2023/07/12 04:43:27;;;;;;;11.35;3.65;;;15.30;99.90;;;;;;4963159;28;20632;-74
2023/07/12 04:45:52;;;;;;;18.38;3.58;;;15.30;99.90;;;;;;4953691;28;20180;-75
2023/07/12 04:48:18;;;;;;;14.50;3.15;;;15.30;99.90;;;;;;4969285;28;20183;-75
2023/07/12 04:50:44;;;;;;;11.63;3.22;;;15.40;99.90;;;;;;4972639;28;20669;-78
2023/07/12 04:53:12;;;;;;;16.23;3.28;;;15.40;99.90;;;;;;4972566;28;20172;-75
2023/07/12 04:55:38;;;;;;;12.82;2.80;;;15.50;99.90;;;;;;4972611;28;20295;-75
2023/07/12 04:58:03;;;;;;;14.45;2.88;;;15.50;99.90;;;;;;4972782;28;20184;-76
2023/07/12 05:00:29;;;;;;;15.75;3.15;;;15.50;99.90;;;;;;4972503;28;20271;-76
2023/07/12 05:02:54;;;;;;;12.75;2.65;;;15.60;99.90;;;;;;4972618;28;20168;-83
2023/07/12 05:05:20;;;;;;;10.85;2.92;;;15.60;99.90;;;;;;4972576;28;20176;-70
2023/07/12 05:07:48;;;;;;;12.80;2.90;;;15.70;99.90;;;;;;4972561;28;20180;-73
2023/07/12 05:10:14;;;;;;;11.70;2.72;;;15.70;99.90;;;;;;4972632;28;20262;-74
2023/07/12 05:12:41;;;;;;;8.20;2.70;;;15.70;99.90;;;;;;4972422;28;20683;-73
2023/07/12 05:15:09;;;;;;;10.80;2.72;;;15.70;99.90;;;;;;4971171;28;20216;-74
2023/07/12 05:17:35;;;;;;;10.60;2.55;;;15.70;99.90;;;;;;4972313;28;20176;-74
2023/07/12 05:20:03;;;;;;;17.70;3.00;;;15.80;99.90;;;;;;4972345;28;20238;-75
2023/07/12 05:22:29;;;;;;;9.88;2.50;;;15.80;99.90;;;;;;4972490;28;20184;-75
2023/07/12 05:24:56;;;;;;;7.35;2.25;;;15.80;99.90;;;;;;4972351;28;20665;-77
2023/07/12 05:27:22;;;;;;;12.07;2.53;;;15.80;99.90;;;;;;4972193;28;20227;-77
2023/07/12 05:29:48;;;;;;;12.27;3.00;;;15.80;99.90;;;;;;4972234;28;20211;-77
2023/07/12 05:32:14;;;;;;;9.20;2.40;;;15.90;99.90;;;;;;4972282;28;20547;-70
2023/07/12 05:34:41;;;;;;;10.13;2.15;;;15.90;99.90;;;;;;4972252;28;20206;-81
2023/07/12 05:37:07;;;;;;;14.60;2.63;;;16.00;99.90;;;;;;4972449;28;20210;-82
2023/07/12 05:39:33;;;;;;;5.47;1.63;;;16.00;99.90;;;;;;4972330;28;20195;-75
2023/07/12 05:41:58;;;;;;;8.35;2.05;;;16.00;99.90;;;;;;4971827;28;20241;-75
2023/07/12 05:44:24;;;;;;;8.27;1.98;;;16.10;99.90;;;;;;4971985;28;20682;-78
2023/07/12 05:46:50;;;;;;;5.93;1.70;;;16.10;99.90;;;;;;4972546;28;20248;-82
2023/07/12 05:49:16;;;;;;;6.07;1.83;;;;;;;;;;4972387;28;20509;-81
2023/07/12 05:51:42;;;;;;;13.98;2.30;;;16.00;99.90;;;;;;4973346;28;20243;-81
2023/07/12 05:54:07;;;;;;;9.18;1.75;;;16.00;99.90;;;;;;4973311;28;20176;-81
2023/07/12 05:56:33;;;;;;;3.92;1.38;;;16.00;99.90;;;;;;4974205;28;20187;-80
2023/07/12 05:58:59;;;;;;;11.30;1.60;;;16.10;99.90;;;;;;4973959;28;20536;-80
2023/07/12 06:01:26;;;;;;;7.80;1.90;;;16.00;99.90;;;;;;4975282;28;20633;-81
2023/07/12 06:03:53;;;;;;;4.68;1.67;;;16.00;99.90;;;;;;4975082;28;20180;-81
2023/07/12 06:06:18;;;;;;;5.97;1.48;;;16.00;99.90;;;;;;4981737;28;20187;-81
2023/07/12 06:08:44;;;;;;;7.63;1.83;;;15.90;99.90;;;;;;4986628;28;20176;-83
2023/07/12 06:11:10;;;;;;;9.63;1.77;;;15.90;99.90;;;;;;4988277;28;20172;-86
2023/07/12 06:13:35;;;;;;;15.55;2.60;;;15.90;99.90;;;;;;4984904;28;20198;-80
2023/07/12 06:16:02;;;;;;;10.15;1.95;;;16.00;99.90;;;;;;4975493;28;20219;-82
2023/07/12 06:18:29;;;;;;;9.88;2.25;;;16.10;99.90;;;;;;4977343;28;20192;-82
2023/07/12 06:20:57;;;;;;;7.63;1.70;;;16.10;99.90;;;;;;4977524;28;20202;-82
2023/07/12 06:23:23;;;;;;;6.93;2.00;;;16.10;99.90;;;;;;4979713;28;20168;-82
2023/07/12 06:25:49;;;;;;;13.45;2.03;;;16.10;99.90;;;;;;4980264;28;20215;-83
2023/07/12 06:28:15;;;;;;;4.60;1.55;;;16.00;99.90;;;;;;4980166;28;20270;-82
2023/07/12 06:30:41;;;;;;;9.18;1.65;;;16.10;99.90;;;;;;4979035;28;20778;-75
2023/07/12 06:33:06;;;;;;;6.25;2.22;;;16.30;99.90;;;;;;4976463;28;20639;-78
2023/07/12 06:35:32;;;;;;;6.18;2.00;;;16.20;99.90;;;;;;4974505;28;20314;-69
2023/07/12 06:37:58;;;;;;;6.03;1.58;;;16.30;99.90;;;;;;4974774;28;20274;-69
2023/07/12 06:40:23;;;;;;;10.35;1.77;;;16.40;99.90;;;;;;4974335;28;20530;-68
2023/07/12 06:42:49;;;;;;;14.07;1.77;;;16.40;99.90;;;;;;4973421;28;20581;-67
2023/07/12 06:45:15;;;;;;;8.10;1.55;;;16.40;99.90;;;;;;4974816;28;20707;-67
2023/07/12 06:47:40;;;;;;;10.20;1.90;;;16.50;99.90;;;;;;4974080;28;20697;-67
2023/07/12 06:50:07;;;;;;;10.38;1.98;;;16.60;99.90;;;;;;4973863;28;20666;-69
2023/07/12 06:52:32;;;;;;;12.75;1.70;;;16.60;99.90;;;;;;4972284;28;20655;-69
2023/07/12 06:54:58;;;;;;;6.80;1.90;;;16.70;99.90;;;;;;4964171;28;20222;-74
2023/07/12 06:57:23;;;;;;;12.35;1.65;;;16.70;99.90;;;;;;4974714;28;20172;-73
2023/07/12 06:59:49;;;;;;;14.98;1.65;;;17.00;99.90;;;;;;4974799;28;20643;-73
2023/07/12 07:02:15;;;;;;;12.10;2.15;;;16.90;99.90;;;;;;4974883;28;20183;-75
2023/07/12 07:04:41;;;;;;;10.05;1.58;;;17.00;99.90;;;;;;4974808;28;20175;-76
2023/07/12 07:07:06;;;;;;;9.63;1.98;;;17.10;99.90;;;;;;4970264;28;20180;-77
2023/07/12 07:09:38;;;;;;;11.15;2.03;;;17.20;99.90;;;;;;4966390;28;20212;-77
2023/07/12 07:12:07;;;;;;;10.52;2.30;;;17.20;99.90;;;;;;4964583;28;20207;-77
2023/07/12 07:14:33;;;;;;;7.75;1.65;;;17.30;99.90;;;;;;4974362;28;20200;-76
2023/07/12 07:16:58;;;;;;;14.63;2.00;;;17.30;99.90;;;;;;4974494;28;20680;-73
2023/07/12 07:19:24;;;;;;;13.73;2.30;;;17.40;99.90;;;;;;4974398;28;20176;-69
2023/07/12 07:21:50;;;;;;;15.73;2.65;;;17.50;99.90;;;;;;4973138;28;20172;-69
2023/07/12 07:24:17;;;;;;;10.13;1.80;;;17.30;99.90;;;;;;4965813;28;20627;-74
2023/07/12 07:26:45;;;;;;;14.23;2.58;;;17.30;99.90;;;;;;4967085;28;20758;-73
2023/07/12 07:29:11;;;;;;;18.20;2.08;;;17.50;99.90;;;;;;4967783;28;20204;-74
2023/07/12 07:31:36;;;;;;;10.88;2.00;;;17.80;99.90;;;;;;4963824;28;20605;-74
2023/07/12 07:34:03;;;;;;;8.20;1.65;;;17.90;99.90;;;;;;4958939;28;20860;-74
2023/07/12 07:36:29;;;;;;;15.05;2.15;;;17.90;99.90;;;;;;4954739;28;20286;-74
2023/07/12 07:38:55;;;;;;;14.07;1.85;;;17.90;99.90;;;;;;4962382;28;20598;-78
2023/07/12 07:41:21;;;;;;;12.27;1.83;;;17.80;99.90;;;;;;4972170;28;20263;-74
2023/07/12 07:43:46;;;;;;;11.73;2.50;;;17.70;99.90;;;;;;4964374;28;20218;-75
2023/07/12 07:46:14;;;;;;;8.85;1.73;;;17.60;99.90;;;;;;4964858;28;20180;-74
2023/07/12 07:48:40;;;;;;;11.70;1.88;;;17.90;99.90;;;;;;4964651;28;20259;-69
2023/07/12 07:51:08;;;;;;;10.38;1.80;;;18.10;99.90;;;;;;4964207;28;20184;-72
2023/07/12 07:53:34;;;;;;;11.15;2.17;;;17.90;99.90;;;;;;4973628;28;20180;-71
2023/07/12 07:56:00;;;;;;;11.88;1.92;;;;;;;;;;4973440;28;20700;-71
2023/07/12 07:58:25;;;;;;;9.63;1.63;;;17.30;99.90;;;;;;4973629;28;20210;-72
2023/07/12 08:00:52;;;;;;;10.85;1.90;;;16.90;99.90;;;;;;4973156;28;20176;-70
2023/07/12 08:03:17;;;;;;;11.40;2.10;;;17.00;99.90;;;;;;4973586;28;20275;-67
2023/07/12 08:05:44;;;;;;;15.35;2.15;;;17.00;99.90;;;;;;4973295;28;20262;-67
2023/07/12 08:08:09;;;;;;;12.65;2.20;;;16.90;99.90;;;;;;4973007;28;20247;-67
2023/07/12 08:10:35;;;;;;;13.23;2.08;;;17.00;99.90;;;;;;4973450;28;20353;-71
2023/07/12 08:13:01;;;;;;;9.00;2.20;;;17.00;99.90;;;;;;4972955;28;20616;-80
2023/07/12 08:15:27;;;;;;;9.18;2.25;;;17.00;99.90;;;;;;4972895;28;20302;-67
2023/07/12 08:17:53;;;;;;;13.05;2.10;;;16.90;99.90;;;;;;4973323;28;20623;-68
2023/07/12 08:20:19;;;;;;;11.65;2.00;;;16.90;99.90;;;;;;4973175;28;20710;-67
2023/07/12 08:22:45;;;;;;;9.88;1.95;;;16.70;99.90;;;;;;4973168;28;20168;-70
2023/07/12 08:25:11;;;;;;;8.30;1.52;;;16.60;99.90;;;;;;4973204;28;20536;-67
2023/07/12 08:27:37;;;;;;;8.75;1.80;;;16.30;99.90;;;;;;4972960;28;20591;-68
2023/07/12 08:30:03;;;;;;;14.98;2.70;;;16.30;99.90;;;;;;4972981;28;20176;-67
2023/07/12 08:32:32;;;;;;;12.98;1.98;;;16.30;99.90;;;;;;4973050;28;20175;-68
2023/07/12 08:34:58;;;;;;;6.65;1.95;;;16.10;99.90;;;;;;4972688;28;20266;-68
2023/07/12 08:37:25;;;;;;;12.32;2.08;;;16.10;99.90;;;;;;4970392;28;20176;-68
2023/07/12 08:39:51;;;;;;;5.75;1.88;;;15.80;99.90;;;;;;4955749;28;20181;-68
2023/07/12 08:42:23;;;;;;;10.48;2.15;;;15.90;99.90;;;;;;4963562;28;20261;-68
2023/07/12 08:44:50;;;;;;;13.07;2.50;;;15.80;99.90;;;;;;4972523;28;20219;-69
2023/07/12 08:47:27;;;;;;;11.88;2.25;;;16.30;99.90;;;;;;4972397;28;20190;-69
2023/07/12 08:49:53;;;;;;;9.20;2.10;;;16.20;99.90;;;;;;4972566;28;20243;-67
2023/07/12 08:52:24;;;;;;;10.30;1.95;;;16.50;99.90;;;;;;4972501;28;20651;-67
2023/07/12 08:54:50;;;;;;;8.65;2.20;;;16.50;99.90;;;;;;4962290;28;20578;-68
2023/07/12 08:57:20;;;;;;;12.82;1.92;;;16.60;99.90;;;;;;4972668;28;20168;-68
2023/07/12 09:00:02;;;;;;;7.90;1.60;;;16.60;99.90;;;;;;4972368;28;20194;-70
2023/07/12 09:02:27;;;;;;;3.85;1.17;;;16.70;99.90;;;;;;4968891;28;20176;-71
2023/07/12 09:04:57;;;;;;;9.20;1.48;;;16.60;99.90;;;;;;4965241;28;20186;-69
2023/07/12 09:07:31;;;;;;;9.10;1.70;;;16.60;99.90;;;;;;4972070;28;20184;-68
2023/07/12 09:09:59;;;;;;;9.60;1.75;;;16.60;99.90;;;;;;4972474;28;20246;-68
2023/07/12 09:12:34;;;;;;;6.60;1.50;;;16.60;99.90;;;;;;4971566;28;20521;-68
2023/07/12 09:15:03;;;;;;;9.80;1.20;;;16.70;99.90;;;;;;4972221;28;20211;-68
2023/07/12 09:17:35;;;;;;;5.90;1.17;;;16.80;99.90;;;;;;4970831;28;20571;-66
2023/07/12 09:20:01;;;;;;;8.40;1.55;;;16.50;99.90;;;;;;4971783;28;20198;-67
2023/07/12 09:22:29;;;;;;;8.20;1.50;;;16.50;99.90;;;;;;4961636;28;20177;-67
2023/07/12 09:24:56;;;;;;;6.28;1.52;;;16.60;99.90;;;;;;4971072;28;20238;-67
2023/07/12 09:27:25;;;;;;;7.80;1.73;;;16.50;99.90;;;;;;4972231;28;20258;-68
2023/07/12 09:30:00;;;;;;;8.85;1.55;;;16.60;99.90;;;;;;4971968;28;20647;-68
2023/07/12 09:32:35;;;;;;;4.97;1.20;;;16.60;99.90;;;;;;4956679;28;20196;-68
2023/07/12 09:35:21;;;;;;;4.85;1.38;;;16.80;99.90;;;;;;4952295;28;20669;-67
2023/07/12 09:38:02;;;;;;;8.38;1.30;;;17.10;99.90;;;;;;4961432;28;20631;-67
2023/07/12 09:40:49;;;;;;;5.35;1.60;;;17.30;99.90;;;;;;4953666;28;20570;-66
2023/07/12 09:43:21;;;;;;;5.47;1.17;;;17.40;99.90;;;;;;4971360;28;20258;-66
2023/07/12 09:46:24;;;;;;;3.92;1.20;;;17.80;99.90;;;;;;4971293;28;20227;-66
2023/07/12 09:48:59;;;;;;;7.68;1.50;;;17.80;99.90;;;;;;4972234;28;20178;-66
2023/07/12 09:51:57;;;;;;;5.30;1.10;;;18.00;99.90;;;;;;4971840;28;20174;-66
2023/07/12 09:54:38;;;;;;;6.82;1.50;;;18.30;99.90;;;;;;4962589;28;20199;-67
2023/07/12 09:57:19;;;;;;;8.07;1.70;;;18.30;99.90;;;;;;4971954;28;20180;-68
2023/07/12 10:00:29;;;;;;;8.93;1.75;;;17.90;99.90;;;;;;4971669;28;20251;-67
2023/07/12 10:03:13;;;;;;;7.82;1.55;;;17.90;99.90;;;;;;4969669;28;20219;-67
2023/07/12 10:05:46;;;;;;;8.50;1.40;;;18.10;99.90;;;;;;4975515;28;20176;-67
2023/07/12 10:08:15;;;;;;;7.75;1.50;;;18.40;99.90;;;;;;4970943;28;20211;-70
2023/07/12 10:10:55;;;;;;;9.40;2.00;;;18.50;99.90;;;;;;4975624;28;20184;-67
2023/07/12 10:13:41;;;;;;;9.07;1.33;;;18.90;99.90;;;;;;4970919;28;20190;-67
2023/07/12 10:16:15;;;;;;;7.88;1.63;;;18.90;99.90;;;;;;4958131;28;20215;-67
2023/07/12 10:18:43;;;;;;;10.27;2.15;;;18.50;99.90;;;;;;4961231;28;20168;-67
2023/07/12 10:21:13;;;;;;;11.10;2.22;;;18.20;99.90;;;;;;4975352;28;20187;-67
2023/07/12 10:24:13;;;;;;;7.00;1.60;;;17.80;99.90;;;;;;4975348;28;20757;-67
2023/07/12 10:26:38;;;;;;;11.07;2.15;;;18.10;99.90;;;;;;4974567;28;20184;-66
2023/07/12 10:29:27;;;;;;;14.85;2.00;;;18.10;99.90;;;;;;4974196;28;20243;-66
2023/07/12 10:31:57;;;;;;;8.93;1.67;;;18.20;99.90;;;;;;4974650;28;20180;-67
2023/07/12 10:34:25;;;;;;;8.40;1.88;;;18.10;99.90;;;;;;4975022;28;20180;-66
2023/07/12 10:36:54;;;;;;;8.48;1.60;;;18.30;99.90;;;;;;4975073;28;20207;-66
2023/07/12 10:39:22;;;;;;;5.28;1.58;;;18.30;99.90;;;;;;4973838;28;20188;-66
2023/07/12 10:42:17;;;;;;;10.20;1.73;;;18.40;99.90;;;;;;4974644;28;20190;-67
2023/07/12 10:44:49;;;;;;;8.00;1.55;;;18.40;99.90;;;;;;4972739;28;20227;-67
2023/07/12 10:47:18;;;;;;;17.40;2.83;;;18.50;99.90;;;;;;4974999;28;20168;-67
2023/07/12 10:49:57;;;;;;;12.15;2.40;;;18.40;99.90;;;;;;4975054;28;20199;-67
2023/07/12 10:52:53;;;;;;;8.32;1.48;;;18.60;99.90;;;;;;4975076;28;20168;-66
2023/07/12 10:55:41;;;;;;;8.70;1.30;;;18.80;99.90;;;;;;4975064;28;20297;-66
2023/07/12 10:58:41;;;;;;;9.00;1.52;;;18.90;99.90;;;;;;4974530;28;20219;-67
2023/07/12 11:01:40;;;;;;;6.85;2.00;;;19.10;99.90;;;;;;4973601;28;20682;-67
2023/07/12 11:04:12;;;;;;;9.60;2.05;;;19.40;99.90;;;;;;4974895;28;20180;-67
2023/07/12 11:07:23;;;;;;;8.68;1.45;;;19.50;99.90;;;;;;4974635;28;20254;-67
2023/07/12 11:09:51;;;;;;;11.27;2.22;;;19.70;99.90;;;;;;4969101;28;20260;-67
2023/07/12 11:12:18;;;;;;;16.00;2.22;;;19.90;99.90;;;;;;4965238;28;20210;-67
2023/07/12 11:14:48;;;;;;;7.05;1.27;;;19.90;99.90;;;;;;4962444;28;20220;-67
2023/07/12 11:17:26;;;;;;;7.65;1.48;;;19.70;99.90;;;;;;4968176;28;20180;-66
2023/07/12 11:20:21;;;;;;;11.25;1.90;;;19.50;99.90;;;;;;4973851;28;20180;-67
2023/07/12 11:22:51;;;;;;;9.32;2.05;;;19.70;99.90;;;;;;4974183;28;20168;-67
2023/07/12 11:25:27;;;;;;;7.18;1.65;;;20.40;99.90;;;;;;4974329;28;20536;-65
2023/07/12 11:27:53;;;;;;;5.45;1.17;;;20.50;99.90;;;;;;4972848;28;20179;-66
2023/07/12 11:30:26;;;;;;;9.63;1.83;;;20.30;1.00;;;;;;4974095;28;20186;-67
2023/07/12 11:33:07;;;;;;;10.57;2.08;;;20.50;26.90;;;;;;4974520;28;20179;-67
2023/07/12 11:35:54;;;;;;;12.10;1.88;;;21.20;1.00;;;;;;4974417;28;20601;-67
2023/07/12 11:38:26;;;;;;;6.03;1.30;;;20.60;1.00;;;;;;4965449;28;20188;-66
2023/07/12 11:40:54;;;;;;;6.10;1.67;;;20.30;1.00;;;;;;4958652;28;20176;-66
2023/07/12 11:43:22;;;;;;;11.05;1.77;;;20.30;1.00;;;;;;4964509;28;20270;-66
2023/07/12 11:45:54;;;;;;;10.55;2.00;;;20.30;1.00;;;;;;4963374;28;20323;-67
2023/07/12 11:48:20;;;;;;;8.00;1.27;;;20.20;1.00;;;;;;4963652;28;20180;-67
2023/07/12 11:50:49;;;;;;;8.82;1.20;;;19.90;24.80;;;;;;4964751;28;20164;-66
2023/07/12 11:53:16;;;;;;;6.03;1.30;;;19.70;1.00;;;;;;4968922;28;20184;-66
2023/07/12 11:55:42;;;;;;;4.80;1.10;;;20.00;17.20;;;;;;4962682;28;20211;-68
2023/07/12 11:58:20;;;;;;;8.38;1.67;;;20.70;99.90;;;;;;4963428;28;20186;-67
2023/07/12 12:00:47;;;;;;;10.23;1.52;;;20.60;1.00;;;;;;4964565;28;20259;-66
2023/07/12 12:03:14;;;;;;;8.27;1.83;;;20.80;1.00;;;;;;4964541;28;20171;-66
2023/07/12 12:05:40;;;;;;;7.82;2.05;;;20.70;1.00;;;;;;4962054;28;20215;-67
2023/07/12 12:08:10;;;;;;;8.68;1.58;;;20.70;1.00;;;;;;4969247;28;20176;-66
2023/07/12 12:10:38;;;;;;;11.38;2.30;;;20.70;99.90;;;;;;4973518;28;20176;-66
2023/07/12 12:13:23;;;;;;;6.70;1.83;;;21.10;1.00;;;;;;4973690;28;20199;-66
2023/07/12 12:15:51;;;;;;;11.07;1.75;;;21.00;1.00;;;;;;4972318;28;20216;-67
2023/07/12 12:18:22;;;;;;;12.27;1.75;;;20.70;21.50;;;;;;4972040;28;20607;-67
2023/07/12 12:20:59;;;;;;;9.20;2.08;;;20.40;99.90;;;;;;4973353;28;20168;-65
2023/07/12 12:23:30;;;;;;;17.15;2.20;;;20.00;99.90;;;;;;4973717;28;20196;-65
2023/07/12 12:26:01;;;;;;;15.70;2.20;;;20.40;99.90;;;;;;4972269;28;20185;-65
2023/07/12 12:28:30;;;;;;;8.32;1.45;;;20.60;99.90;;;;;;4973018;28;20200;-66
2023/07/12 12:31:01;;;;;;;13.57;2.15;;;20.90;1.00;;;;;;4973138;28;20251;-66
2023/07/12 12:33:28;;;;;;;14.77;2.40;;;21.40;99.90;;;;;;4970643;28;20176;-73
2023/07/12 12:36:05;;;;;;;13.60;1.98;;;21.90;99.90;;;;;;4968538;28;20216;-74
2023/07/12 12:38:36;;;;;;;10.85;2.13;;;21.80;1.00;;;;;;4959705;28;20271;-73
2023/07/12 12:41:13;;;;;;;11.52;1.88;;;22.20;1.00;;;;;;4972801;28;20184;-73
2023/07/12 12:43:58;;;;;;;11.77;1.95;;;22.00;1.00;;;;;;4972875;28;20557;-72
2023/07/12 12:46:24;;;;;;;14.43;2.40;;;22.20;1.00;;;;;;4972497;28;20267;-70
2023/07/12 12:48:52;;;;;;;13.10;2.10;;;22.60;1.00;;;;;;4971882;28;20203;-70
2023/07/12 12:51:18;;;;;;;9.48;2.28;;;22.60;1.00;;;;;;4972560;28;20180;-72
2023/07/12 12:53:44;;;;;;;9.15;1.50;;;23.20;1.00;;;;;;4972654;28;20168;-72